createdAt,value
2023-04-16T07:26:30.729Z,101966.44
2023-04-16T07:29:01.373Z,101965.47
2023-04-16T07:31:29.982Z,101968.81
2023-04-16T07:47:53.819Z,101962.13
2023-04-16T07:50:26.884Z,101949.41
2023-04-16T07:52:59.952Z,101952.69
2023-04-16T07:55:30.996Z,101954.41
2023-04-16T07:58:01.290Z,101941.19
2023-04-16T08:00:34.759Z,101933.63
2023-04-16T08:03:06.709Z,101938.00
2023-04-16T08:05:35.251Z,101945.88
2023-04-16T08:08:06.215Z,101936.47
2023-04-16T08:10:37.055Z,101940.13
2023-04-16T08:13:13.385Z,101941.84
2023-04-16T08:15:42.185Z,101931.78
2023-04-16T08:18:13.190Z,101921.53
2023-04-16T08:20:43.722Z,101931.22
2023-04-16T08:23:15.388Z,101936.44
2023-04-16T08:25:50.100Z,101923.84
2023-04-16T08:28:27.192Z,101924.75
2023-04-16T08:31:01.547Z,101928.63
2023-04-16T08:33:32.629Z,101923.53
2023-04-16T08:36:00.500Z,101931.75
2023-04-16T08:38:36.948Z,101918.09
2023-04-16T08:41:10.992Z,101909.69
2023-04-16T08:43:40.461Z,101918.13
2023-04-16T08:46:13.042Z,101920.03
2023-04-16T08:48:41.825Z,101917.91
2023-04-16T08:51:11.568Z,101918.09
2023-04-16T08:54:06.799Z,101922.59
2023-04-16T08:56:37.813Z,101921.66
2023-04-16T08:59:13.393Z,101919.50
2023-04-16T09:01:42.998Z,101920.81
2023-04-16T09:04:17.571Z,101903.94
2023-04-16T09:06:47.082Z,101910.84
2023-04-16T09:09:15.389Z,101913.38
2023-04-16T09:11:44.409Z,101909.13
2023-04-16T09:14:12.729Z,101910.34
2023-04-16T09:16:50.028Z,101913.84
2023-04-16T09:19:22.662Z,101900.78
2023-04-16T09:22:00.139Z,101908.66
2023-04-16T09:24:32.622Z,101891.97
2023-04-16T09:27:03.079Z,101889.25
2023-04-16T09:29:36.530Z,101880.06
2023-04-16T09:32:15.264Z,101888.97
2023-04-16T09:35:05.200Z,101885.84
2023-04-16T09:37:40.342Z,101897.59
2023-04-16T09:40:08.618Z,101893.13
2023-04-16T09:42:37.396Z,101894.56
2023-04-16T09:45:14.284Z,101898.19
2023-04-16T09:47:44.375Z,101882.50
2023-04-16T09:50:35.486Z,101889.81
2023-04-16T09:53:04.034Z,101887.94
2023-04-16T09:55:31.826Z,101889.88
2023-04-16T09:58:03.499Z,101892.56
2023-04-16T10:00:32.269Z,101902.16
2023-04-16T10:03:08.612Z,101903.75
2023-04-16T10:05:37.182Z,101908.41
2023-04-16T10:08:13.179Z,101908.59
2023-04-16T10:10:43.155Z,101903.94
2023-04-16T10:13:18.100Z,101913.69
2023-04-16T10:15:49.580Z,101898.59
2023-04-16T10:18:18.590Z,101904.84
2023-04-16T10:20:46.377Z,101910.94
2023-04-16T10:23:15.283Z,101897.13
2023-04-16T10:25:43.439Z,101892.22
2023-04-16T10:28:11.522Z,101902.53
2023-04-16T10:30:42.679Z,101905.34
2023-04-16T10:33:10.634Z,101875.91
2023-04-16T10:35:40.755Z,101898.81
2023-04-16T10:38:28.854Z,101896.59
2023-04-16T10:41:04.997Z,101895.66
2023-04-16T10:43:34.371Z,101895.50
2023-04-16T10:46:22.940Z,101875.41
2023-04-16T10:48:56.002Z,101887.84
2023-04-16T10:52:20.474Z,101887.88
2023-04-16T10:54:49.130Z,101882.00
2023-04-16T10:57:18.020Z,101882.63
2023-04-16T10:59:46.415Z,101876.78
2023-04-16T11:02:16.095Z,101881.31
2023-04-16T11:05:08.910Z,101884.75
2023-04-16T11:07:39.683Z,101875.34
2023-04-16T11:10:13.513Z,101874.81
2023-04-16T11:12:51.333Z,101869.38
2023-04-16T11:15:19.942Z,101872.66
2023-04-16T11:17:52.008Z,101863.78
2023-04-16T11:20:38.559Z,101881.97
2023-04-16T11:23:08.713Z,101869.03
2023-04-16T11:25:37.392Z,101866.69
2023-04-16T11:28:05.895Z,101860.78
2023-04-16T11:30:36.190Z,101859.00
2023-04-16T11:33:11.758Z,101847.28
2023-04-16T11:35:41.843Z,101851.00
2023-04-16T11:38:09.863Z,101849.78
2023-04-16T11:40:38.874Z,101847.50
2023-04-16T11:43:18.097Z,101842.47
2023-04-16T11:46:16.570Z,101844.59
2023-04-16T11:48:54.032Z,101835.22
2023-04-16T11:51:23.807Z,101831.97
2023-04-16T11:53:55.777Z,101827.78
2023-04-16T11:56:30.329Z,101832.84
2023-04-16T11:59:14.564Z,101825.59
2023-04-16T12:01:45.971Z,101828.09
2023-04-16T12:04:16.505Z,101833.44
2023-04-16T12:07:11.924Z,101842.63
2023-04-16T12:09:44.810Z,101829.94
2023-04-16T12:12:25.894Z,101836.94
2023-04-16T12:14:54.547Z,101816.34
2023-04-16T12:17:22.996Z,101827.38
2023-04-16T12:20:10.430Z,101816.09
2023-04-16T12:22:39.963Z,101821.81
2023-04-16T12:25:11.497Z,101827.53
2023-04-16T12:27:56.241Z,101823.31
2023-04-16T12:30:27.903Z,101815.00
2023-04-16T12:33:17.541Z,101811.38
2023-04-16T12:35:47.640Z,101811.75
2023-04-16T12:38:16.321Z,101807.66
2023-04-16T12:40:44.899Z,101799.66
2023-04-16T12:43:12.928Z,101792.50
2023-04-16T12:45:42.932Z,101801.41
2023-04-16T12:48:10.851Z,101808.28
2023-04-16T12:50:39.997Z,101812.66
2023-04-16T12:53:08.168Z,101800.09
2023-04-16T12:55:37.093Z,101810.97
2023-04-16T12:58:05.527Z,101812.22
2023-04-16T13:00:35.032Z,101810.34
2023-04-16T13:03:04.479Z,101798.41
2023-04-16T13:05:33.338Z,101792.34
2023-04-16T13:08:01.488Z,101798.41
2023-04-16T13:10:30.551Z,101782.75
2023-04-16T13:12:58.521Z,101784.47
2023-04-16T13:15:29.200Z,101784.69
2023-04-16T13:17:59.696Z,101783.78
2023-04-16T13:20:27.607Z,101770.88
2023-04-16T13:22:58.091Z,101780.91
2023-04-16T13:25:26.126Z,101776.19
2023-04-16T13:27:53.683Z,101775.97
2023-04-16T13:30:21.883Z,101780.06
2023-04-16T13:32:49.469Z,101780.53
2023-04-16T13:35:17.256Z,101777.03
2023-04-16T13:37:44.797Z,101774.53
2023-04-16T13:40:12.810Z,101778.69
2023-04-16T13:42:41.172Z,101787.47
2023-04-16T13:45:11.824Z,101769.38
2023-04-16T13:47:44.115Z,101777.72
2023-04-16T13:50:13.292Z,101781.59
2023-04-16T13:52:43.189Z,101786.28
2023-04-16T13:55:21.941Z,101783.53
2023-04-16T13:57:52.789Z,101785.22
2023-04-16T14:00:21.047Z,101784.19
2023-04-16T14:02:51.942Z,101785.66
2023-04-16T14:05:20.266Z,101779.06
2023-04-16T14:07:48.598Z,101777.78
2023-04-16T14:10:17.105Z,101783.09
2023-04-16T14:12:46.848Z,101785.88
2023-04-16T14:15:15.377Z,101779.50
2023-04-16T14:17:43.684Z,101770.72
2023-04-16T14:20:13.504Z,101781.72
2023-04-16T14:22:42.599Z,101766.84
2023-04-16T14:25:10.125Z,101778.50
2023-04-16T14:27:37.982Z,101780.91
2023-04-16T14:30:06.427Z,101772.59
2023-04-16T14:32:34.741Z,101772.88
2023-04-16T14:35:02.257Z,101775.06
2023-04-16T14:37:29.979Z,101778.25
2023-04-16T14:39:57.545Z,101771.91
2023-04-16T14:42:25.147Z,101766.94
2023-04-16T14:44:52.757Z,101776.34
2023-04-16T14:47:20.463Z,101770.41
2023-04-16T14:49:48.313Z,101768.59
2023-04-16T14:52:16.877Z,101777.78
2023-04-16T14:54:44.450Z,101772.69
2023-04-16T14:57:12.203Z,101775.66
2023-04-16T14:59:39.732Z,101780.78
2023-04-16T15:02:07.440Z,101785.88
2023-04-16T15:04:35.074Z,101783.09
2023-04-16T15:07:03.210Z,101782.41
2023-04-16T15:09:36.961Z,101783.03
2023-04-16T15:12:07.896Z,101795.88
2023-04-16T15:14:38.090Z,101791.97
2023-04-16T15:17:07.347Z,101793.00
2023-04-16T15:19:35.001Z,101797.31
2023-04-16T15:22:03.602Z,101786.00
2023-04-16T15:24:31.966Z,101798.41
2023-04-16T15:26:59.804Z,101799.81
2023-04-16T15:29:28.009Z,101797.16
2023-04-16T15:31:58.201Z,101799.91
2023-04-16T15:34:27.517Z,101794.47
2023-04-16T15:36:55.241Z,101793.19
2023-04-16T15:39:25.369Z,101799.94
2023-04-16T15:42:01.136Z,101803.13
2023-04-16T15:44:32.711Z,101804.94
2023-04-16T15:47:01.405Z,101802.72
2023-04-16T15:49:29.325Z,101805.84
2023-04-16T15:51:58.480Z,101812.50
2023-04-16T15:54:26.758Z,101822.47
2023-04-16T15:56:55.871Z,101815.81
2023-04-16T15:59:23.954Z,101816.78
2023-04-16T16:01:51.847Z,101822.13
2023-04-16T16:04:22.677Z,101826.25
2023-04-16T16:06:52.042Z,101822.19
2023-04-16T16:09:26.203Z,101824.97
2023-04-16T16:11:55.180Z,101823.91
2023-04-16T16:14:23.410Z,101827.69
2023-04-16T16:16:53.700Z,101831.88
2023-04-16T16:19:23.282Z,101838.91
2023-04-16T16:21:51.266Z,101833.25
2023-04-16T16:24:19.578Z,101829.41
2023-04-16T16:26:48.573Z,101841.81
2023-04-16T16:29:16.615Z,101838.63
2023-04-16T16:31:46.737Z,101842.34
2023-04-16T16:34:20.966Z,101847.78
2023-04-16T16:36:50.206Z,101843.53
2023-04-16T16:39:18.558Z,101841.34
2023-04-16T16:41:47.781Z,101850.69
2023-04-16T16:44:16.356Z,101855.31
2023-04-16T16:46:44.554Z,101853.63
2023-04-16T16:49:12.865Z,101845.25
2023-04-16T16:51:41.447Z,101853.69
2023-04-16T16:54:09.341Z,101859.69
2023-04-16T16:56:37.933Z,101856.91
2023-04-16T16:59:05.700Z,101859.00
2023-04-16T17:01:35.189Z,101862.59
2023-04-16T17:04:04.895Z,101865.88
2023-04-16T17:06:33.859Z,101860.44
2023-04-16T17:09:01.908Z,101871.22
2023-04-16T17:11:29.848Z,101862.50
2023-04-16T17:13:58.642Z,101871.75
2023-04-16T17:16:27.956Z,101870.88
2023-04-16T17:18:59.742Z,101871.72
2023-04-16T17:21:28.498Z,101876.00
2023-04-16T17:23:58.384Z,101872.94
2023-04-16T17:26:26.089Z,101876.47
2023-04-16T17:28:54.388Z,101881.28
2023-04-16T17:31:26.238Z,101880.25
2023-04-16T17:33:54.705Z,101875.78
2023-04-16T17:36:23.507Z,101878.53
2023-04-16T17:38:52.154Z,101887.72
2023-04-16T17:41:20.502Z,101882.56
2023-04-16T17:43:49.926Z,101885.81
2023-04-16T17:46:19.354Z,101882.22
2023-04-16T17:48:49.127Z,101886.47
2023-04-16T17:51:18.746Z,101888.16
2023-04-16T17:53:49.315Z,101884.22
2023-04-16T17:56:17.387Z,101892.38
2023-04-16T17:58:48.353Z,101889.09
2023-04-16T18:01:16.976Z,101884.13
2023-04-16T18:03:45.974Z,101895.41
2023-04-16T18:06:16.471Z,101890.44
2023-04-16T18:08:44.074Z,101880.00
2023-04-16T18:11:12.094Z,101892.06
2023-04-16T18:13:41.282Z,101887.09
2023-04-16T18:16:15.105Z,101888.44
2023-04-16T18:18:44.061Z,101891.50
2023-04-16T18:21:11.881Z,101882.06
2023-04-16T18:23:40.132Z,101890.09
2023-04-16T18:26:09.453Z,101889.25
2023-04-16T18:28:39.687Z,101894.84
2023-04-16T18:31:08.327Z,101897.50
2023-04-16T18:33:54.219Z,101890.91
2023-04-16T18:36:24.427Z,101897.06
2023-04-16T18:39:01.601Z,101887.06
2023-04-16T18:41:31.579Z,101888.94
2023-04-16T18:44:01.162Z,101887.63
2023-04-16T18:46:30.748Z,101887.94
2023-04-16T18:49:02.106Z,101892.69
2023-04-16T18:51:30.240Z,101890.59
2023-04-16T18:53:58.552Z,101884.97
2023-04-16T18:56:27.344Z,101888.47
2023-04-16T18:58:55.091Z,101894.78
2023-04-16T19:01:22.981Z,101896.22
2023-04-16T19:03:51.421Z,101886.19
2023-04-16T19:06:19.214Z,101884.72
2023-04-16T19:08:48.238Z,101886.47
2023-04-16T19:11:17.518Z,101892.38
2023-04-16T19:13:47.253Z,101886.38
2023-04-16T19:16:15.043Z,101899.09
2023-04-16T19:18:42.884Z,101897.44
2023-04-16T19:21:11.368Z,101899.09
2023-04-16T19:23:43.126Z,101888.34
2023-04-16T19:26:11.644Z,101900.28
2023-04-16T19:28:40.297Z,101892.41
2023-04-16T19:31:09.136Z,101896.16
2023-04-16T19:33:38.377Z,101896.66
2023-04-16T19:36:07.353Z,101901.97
2023-04-16T19:38:37.265Z,101903.84
2023-04-16T19:41:06.169Z,101907.03
2023-04-16T19:43:37.268Z,101892.03
2023-04-16T19:46:06.285Z,101903.25
2023-04-16T19:48:35.141Z,101899.97
2023-04-16T19:51:05.940Z,101906.88
2023-04-16T19:53:37.565Z,101908.94
2023-04-16T19:56:06.530Z,101909.22
2023-04-16T19:58:34.456Z,101906.88
2023-04-16T20:01:09.211Z,101913.13
2023-04-16T20:03:40.538Z,101916.31
2023-04-16T20:06:08.930Z,101914.63
2023-04-16T20:08:37.569Z,101918.81
2023-04-16T20:11:05.862Z,101918.44
2023-04-16T20:13:34.048Z,101916.28
2023-04-16T20:16:02.506Z,101919.19
2023-04-16T20:18:30.566Z,101921.66
2023-04-16T20:20:58.773Z,101919.56
2023-04-16T20:23:26.471Z,101922.56
2023-04-16T20:25:54.584Z,101919.63
2023-04-16T20:28:23.213Z,101921.78
2023-04-16T20:30:51.338Z,101936.69
2023-04-16T20:33:19.373Z,101936.28
2023-04-16T20:35:47.489Z,101934.72
2023-04-16T20:38:15.045Z,101934.72
2023-04-16T20:40:45.260Z,101930.16
2023-04-16T20:43:14.510Z,101940.47
2023-04-16T20:45:47.224Z,101934.31
2023-04-16T20:48:16.128Z,101939.78
2023-04-16T20:50:43.902Z,101941.63
2023-04-16T20:53:13.341Z,101941.38
2023-04-16T20:55:43.426Z,101938.94
2023-04-16T20:58:11.923Z,101948.28
2023-04-16T21:00:40.521Z,101940.56
2023-04-16T21:03:08.758Z,101941.88
2023-04-16T21:05:38.445Z,101939.44
2023-04-16T21:08:07.789Z,101946.16
2023-04-16T21:10:36.300Z,101944.34
2023-04-16T21:13:04.112Z,101940.91
2023-04-16T21:15:31.954Z,101941.34
2023-04-16T21:17:59.878Z,101931.19
2023-04-16T21:20:29.927Z,101934.31
2023-04-16T21:22:58.822Z,101926.47
2023-04-16T21:25:28.167Z,101917.03
2023-04-16T21:27:56.278Z,101927.06
2023-04-16T21:30:24.066Z,101923.31
2023-04-16T21:32:55.013Z,101921.22
2023-04-16T21:35:22.882Z,101917.47
2023-04-16T21:37:51.093Z,101913.16
2023-04-16T21:40:20.662Z,101915.03
2023-04-16T21:42:50.181Z,101905.03
2023-04-16T21:45:18.930Z,101910.47
2023-04-16T21:47:46.617Z,101907.75
2023-04-16T21:50:14.944Z,101908.19
2023-04-16T21:52:47.409Z,101897.88
2023-04-16T21:55:15.231Z,101903.03
2023-04-16T21:57:43.072Z,101900.59
2023-04-16T22:00:15.125Z,101887.56
2023-04-16T22:03:02.693Z,101891.56
2023-04-16T22:05:33.527Z,101889.88
2023-04-16T22:08:10.853Z,101892.28
2023-04-16T22:10:49.941Z,101883.69
2023-04-16T22:13:18.241Z,101882.00
2023-04-16T22:15:46.629Z,101880.28
2023-04-16T22:18:14.541Z,101878.56
2023-04-16T22:20:42.486Z,101887.72
2023-04-16T22:23:12.028Z,101883.69
2023-04-16T22:25:39.930Z,101880.56
2023-04-16T22:28:07.778Z,101878.41
2023-04-16T22:30:36.588Z,101880.13
2023-04-16T22:33:04.359Z,101879.13
2023-04-16T22:35:32.199Z,101875.09
2023-04-16T22:38:02.181Z,101863.38
2023-04-16T22:40:33.327Z,101864.25
2023-04-16T22:43:01.724Z,101867.13
2023-04-16T22:45:29.651Z,101857.06
2023-04-16T22:47:57.779Z,101857.06
2023-04-16T22:50:25.907Z,101855.66
2023-04-16T22:52:54.200Z,101859.34
2023-04-16T22:55:22.084Z,101850.06
2023-04-16T22:57:49.856Z,101847.06
2023-04-16T23:00:18.165Z,101844.78
2023-04-16T23:02:46.151Z,101842.19
2023-04-16T23:05:13.865Z,101842.63
2023-04-16T23:07:43.438Z,101839.03
2023-04-16T23:10:11.633Z,101841.75
2023-04-16T23:12:40.286Z,101840.97
2023-04-16T23:15:09.089Z,101830.44
2023-04-16T23:17:38.578Z,101826.75
2023-04-16T23:20:10.675Z,101837.16
2023-04-16T23:22:41.680Z,101836.69
2023-04-16T23:25:10.045Z,101832.41
2023-04-16T23:27:38.509Z,101837.69
2023-04-16T23:30:07.058Z,101840.50
2023-04-16T23:32:36.151Z,101838.78
2023-04-16T23:35:05.356Z,101832.75
2023-04-16T23:37:33.640Z,101843.19
2023-04-16T23:40:01.177Z,101825.75
2023-04-16T23:42:30.129Z,101838.63
2023-04-16T23:44:58.093Z,101835.47
2023-04-16T23:47:26.607Z,101838.66
2023-04-16T23:49:54.684Z,101841.19
2023-04-16T23:52:24.100Z,101838.59
2023-04-16T23:54:53.314Z,101846.72
2023-04-16T23:57:20.997Z,101840.59
2023-04-16T23:59:48.796Z,101850.56
